sensor_id;sensor_type;location;lat;lon;timestamp;P1;durP1;ratioP1;P2;durP2;ratioP2
14732;SDS011;7457;50.960;6.830;2023-03-31T00:00:45;4.63;;;2.08;;
14732;SDS011;7457;50.960;6.830;2023-03-31T00:03:11;3.78;;;1.92;;
14732;SDS011;7457;50.960;6.830;2023-03-31T00:05:37;6.95;;;2.20;;
14732;SDS011;7457;50.960;6.830;2023-03-31T00:08:03;5.07;;;1.90;;
14732;SDS011;7457;50.960;6.830;2023-03-31T00:10:30;4.50;;;2.00;;
14732;SDS011;7457;50.960;6.830;2023-03-31T00:12:58;5.30;;;1.77;;
14732;SDS011;7457;50.960;6.830;2023-03-31T00:15:27;5.20;;;2.17;;
14732;SDS011;7457;50.960;6.830;2023-03-31T00:17:53;6.93;;;2.35;;
14732;SDS011;7457;50.960;6.830;2023-03-31T00:20:24;7.68;;;1.83;;
14732;SDS011;7457;50.960;6.830;2023-03-31T00:22:49;7.25;;;2.20;;
14732;SDS011;7457;50.960;6.830;2023-03-31T00:25:18;3.85;;;1.77;;
14732;SDS011;7457;50.960;6.830;2023-03-31T00:27:44;6.25;;;2.08;;
14732;SDS011;7457;50.960;6.830;2023-03-31T00:30:13;4.68;;;2.10;;
14732;SDS011;7457;50.960;6.830;2023-03-31T00:32:40;6.95;;;2.22;;
14732;SDS011;7457;50.960;6.830;2023-03-31T00:35:06;5.03;;;1.98;;
14732;SDS011;7457;50.960;6.830;2023-03-31T00:37:32;7.10;;;2.00;;
14732;SDS011;7457;50.960;6.830;2023-03-31T00:39:58;5.05;;;1.83;;
14732;SDS011;7457;50.960;6.830;2023-03-31T00:42:24;3.55;;;1.63;;
14732;SDS011;7457;50.960;6.830;2023-03-31T00:47:38;5.75;;;1.52;;
14732;SDS011;7457;50.960;6.830;2023-03-31T00:50:12;7.25;;;1.90;;
14732;SDS011;7457;50.960;6.830;2023-03-31T00:52:56;4.47;;;1.70;;
14732;SDS011;7457;50.960;6.830;2023-03-31T00:55:46;5.30;;;2.38;;
14732;SDS011;7457;50.960;6.830;2023-03-31T00:58:15;3.45;;;1.40;;
14732;SDS011;7457;50.960;6.830;2023-03-31T01:00:44;4.55;;;1.95;;
14732;SDS011;7457;50.960;6.830;2023-03-31T01:03:14;8.23;;;2.00;;
14732;SDS011;7457;50.960;6.830;2023-03-31T01:05:44;6.03;;;1.77;;
14732;SDS011;7457;50.960;6.830;2023-03-31T01:08:14;4.05;;;1.88;;
14732;SDS011;7457;50.960;6.830;2023-03-31T01:10:44;6.97;;;1.90;;
14732;SDS011;7457;50.960;6.830;2023-03-31T01:13:13;6.07;;;1.85;;
14732;SDS011;7457;50.960;6.830;2023-03-31T01:15:40;5.90;;;1.88;;
14732;SDS011;7457;50.960;6.830;2023-03-31T01:18:07;5.25;;;2.53;;
14732;SDS011;7457;50.960;6.830;2023-03-31T01:44:44;7.07;;;2.72;;
14732;SDS011;7457;50.960;6.830;2023-03-31T01:47:25;11.13;;;2.85;;
14732;SDS011;7457;50.960;6.830;2023-03-31T01:50:07;9.77;;;3.30;;
14732;SDS011;7457;50.960;6.830;2023-03-31T01:52:51;7.57;;;3.08;;
14732;SDS011;7457;50.960;6.830;2023-03-31T01:56:32;11.38;;;2.85;;
14732;SDS011;7457;50.960;6.830;2023-03-31T01:58:33;9.45;;;2.70;;
14732;SDS011;7457;50.960;6.830;2023-03-31T02:01:09;11.05;;;2.63;;
14732;SDS011;7457;50.960;6.830;2023-03-31T02:04:02;7.18;;;2.63;;
14732;SDS011;7457;50.960;6.830;2023-03-31T02:06:37;5.80;;;2.63;;
14732;SDS011;7457;50.960;6.830;2023-03-31T02:09:10;9.50;;;2.60;;
14732;SDS011;7457;50.960;6.830;2023-03-31T02:11:40;9.32;;;3.13;;
14732;SDS011;7457;50.960;6.830;2023-03-31T02:14:08;9.05;;;3.47;;
14732;SDS011;7457;50.960;6.830;2023-03-31T02:16:38;7.75;;;2.90;;
14732;SDS011;7457;50.960;6.830;2023-03-31T02:19:11;9.02;;;2.47;;
14732;SDS011;7457;50.960;6.830;2023-03-31T02:21:43;10.48;;;2.50;;
14732;SDS011;7457;50.960;6.830;2023-03-31T02:24:13;10.30;;;2.40;;
14732;SDS011;7457;50.960;6.830;2023-03-31T02:26:42;10.10;;;2.30;;
14732;SDS011;7457;50.960;6.830;2023-03-31T02:29:17;8.38;;;2.55;;
14732;SDS011;7457;50.960;6.830;2023-03-31T02:31:48;9.13;;;2.72;;
14732;SDS011;7457;50.960;6.830;2023-03-31T02:34:16;8.65;;;2.47;;
14732;SDS011;7457;50.960;6.830;2023-03-31T02:36:41;6.88;;;2.47;;
14732;SDS011;7457;50.960;6.830;2023-03-31T02:39:11;7.88;;;2.60;;
14732;SDS011;7457;50.960;6.830;2023-03-31T02:41:40;7.57;;;3.25;;
14732;SDS011;7457;50.960;6.830;2023-03-31T02:44:07;8.52;;;2.50;;
14732;SDS011;7457;50.960;6.830;2023-03-31T02:46:34;9.52;;;2.60;;
14732;SDS011;7457;50.960;6.830;2023-03-31T02:49:00;9.55;;;2.83;;
14732;SDS011;7457;50.960;6.830;2023-03-31T02:51:32;7.47;;;2.85;;
14732;SDS011;7457;50.960;6.830;2023-03-31T03:15:46;15.75;;;4.18;;
14732;SDS011;7457;50.960;6.830;2023-03-31T03:18:15;7.57;;;3.47;;
14732;SDS011;7457;50.960;6.830;2023-03-31T03:20:41;12.35;;;3.38;;
14732;SDS011;7457;50.960;6.830;2023-03-31T03:23:12;10.05;;;2.83;;
14732;SDS011;7457;50.960;6.830;2023-03-31T03:25:38;13.52;;;3.55;;
14732;SDS011;7457;50.960;6.830;2023-03-31T03:28:04;8.45;;;3.80;;
14732;SDS011;7457;50.960;6.830;2023-03-31T03:30:31;8.30;;;3.03;;
14732;SDS011;7457;50.960;6.830;2023-03-31T03:32:56;10.90;;;3.25;;
14732;SDS011;7457;50.960;6.830;2023-03-31T03:35:22;11.60;;;3.00;;
14732;SDS011;7457;50.960;6.830;2023-03-31T03:37:48;8.60;;;2.58;;
14732;SDS011;7457;50.960;6.830;2023-03-31T03:40:14;8.13;;;2.95;;
14732;SDS011;7457;50.960;6.830;2023-03-31T03:42:40;7.13;;;2.53;;
14732;SDS011;7457;50.960;6.830;2023-03-31T03:45:06;7.53;;;3.10;;
14732;SDS011;7457;50.960;6.830;2023-03-31T03:47:32;7.32;;;2.83;;
14732;SDS011;7457;50.960;6.830;2023-03-31T03:49:57;6.57;;;2.58;;
14732;SDS011;7457;50.960;6.830;2023-03-31T03:52:23;6.07;;;2.72;;
14732;SDS011;7457;50.960;6.830;2023-03-31T03:54:49;8.77;;;2.63;;
14732;SDS011;7457;50.960;6.830;2023-03-31T03:57:14;12.63;;;2.85;;
14732;SDS011;7457;50.960;6.830;2023-03-31T03:59:40;5.05;;;1.92;;
14732;SDS011;7457;50.960;6.830;2023-03-31T04:02:06;3.75;;;1.70;;
14732;SDS011;7457;50.960;6.830;2023-03-31T04:04:31;5.20;;;1.88;;
14732;SDS011;7457;50.960;6.830;2023-03-31T04:06:57;6.72;;;1.90;;
14732;SDS011;7457;50.960;6.830;2023-03-31T04:09:23;3.15;;;2.05;;
14732;SDS011;7457;50.960;6.830;2023-03-31T04:11:49;5.50;;;1.38;;
14732;SDS011;7457;50.960;6.830;2023-03-31T04:14:15;4.10;;;1.80;;
14732;SDS011;7457;50.960;6.830;2023-03-31T04:16:40;2.20;;;1.30;;
14732;SDS011;7457;50.960;6.830;2023-03-31T04:19:06;2.35;;;1.20;;
14732;SDS011;7457;50.960;6.830;2023-03-31T04:21:32;1.98;;;1.50;;
14732;SDS011;7457;50.960;6.830;2023-03-31T04:24:01;3.25;;;1.40;;
14732;SDS011;7457;50.960;6.830;2023-03-31T04:26:29;4.90;;;1.67;;
14732;SDS011;7457;50.960;6.830;2023-03-31T04:29:07;3.40;;;1.70;;
14732;SDS011;7457;50.960;6.830;2023-03-31T04:31:45;2.50;;;1.40;;
14732;SDS011;7457;50.960;6.830;2023-03-31T04:34:11;4.10;;;1.58;;
14732;SDS011;7457;50.960;6.830;2023-03-31T04:36:39;3.38;;;1.40;;
14732;SDS011;7457;50.960;6.830;2023-03-31T04:39:14;2.97;;;1.58;;
14732;SDS011;7457;50.960;6.830;2023-03-31T04:41:50;4.72;;;1.80;;
14732;SDS011;7457;50.960;6.830;2023-03-31T04:44:18;5.18;;;1.65;;
14732;SDS011;7457;50.960;6.830;2023-03-31T04:46:44;4.03;;;1.80;;
14732;SDS011;7457;50.960;6.830;2023-03-31T04:49:10;5.10;;;1.77;;
14732;SDS011;7457;50.960;6.830;2023-03-31T04:51:35;3.63;;;1.83;;
14732;SDS011;7457;50.960;6.830;2023-03-31T04:54:01;4.18;;;1.80;;
14732;SDS011;7457;50.960;6.830;2023-03-31T04:56:27;2.92;;;1.67;;
14732;SDS011;7457;50.960;6.830;2023-03-31T04:58:52;3.72;;;1.58;;
14732;SDS011;7457;50.960;6.830;2023-03-31T05:01:18;4.25;;;2.20;;
14732;SDS011;7457;50.960;6.830;2023-03-31T05:03:44;2.85;;;1.58;;
14732;SDS011;7457;50.960;6.830;2023-03-31T05:06:16;2.25;;;1.50;;
14732;SDS011;7457;50.960;6.830;2023-03-31T05:08:42;4.22;;;1.40;;
14732;SDS011;7457;50.960;6.830;2023-03-31T05:11:08;3.45;;;1.35;;
14732;SDS011;7457;50.960;6.830;2023-03-31T05:13:34;7.30;;;2.15;;
14732;SDS011;7457;50.960;6.830;2023-03-31T05:16:10;3.38;;;1.65;;
14732;SDS011;7457;50.960;6.830;2023-03-31T05:18:38;3.08;;;1.55;;
14732;SDS011;7457;50.960;6.830;2023-03-31T05:21:09;3.60;;;1.70;;
14732;SDS011;7457;50.960;6.830;2023-03-31T05:23:34;4.15;;;2.15;;
14732;SDS011;7457;50.960;6.830;2023-03-31T05:26:00;3.75;;;1.60;;
14732;SDS011;7457;50.960;6.830;2023-03-31T05:28:26;3.33;;;1.35;;
14732;SDS011;7457;50.960;6.830;2023-03-31T05:30:51;2.80;;;1.83;;
14732;SDS011;7457;50.960;6.830;2023-03-31T05:33:17;3.38;;;1.40;;
14732;SDS011;7457;50.960;6.830;2023-03-31T05:35:43;2.83;;;1.25;;
14732;SDS011;7457;50.960;6.830;2023-03-31T05:38:08;3.13;;;1.40;;
14732;SDS011;7457;50.960;6.830;2023-03-31T05:40:34;3.00;;;1.48;;
14732;SDS011;7457;50.960;6.830;2023-03-31T05:43:00;2.58;;;1.27;;
14732;SDS011;7457;50.960;6.830;2023-03-31T05:45:25;3.35;;;1.35;;
14732;SDS011;7457;50.960;6.830;2023-03-31T05:47:51;4.13;;;1.42;;
14732;SDS011;7457;50.960;6.830;2023-03-31T05:50:16;3.00;;;1.23;;
14732;SDS011;7457;50.960;6.830;2023-03-31T05:52:42;3.65;;;1.20;;
14732;SDS011;7457;50.960;6.830;2023-03-31T05:55:08;2.42;;;1.40;;
14732;SDS011;7457;50.960;6.830;2023-03-31T05:57:34;3.17;;;1.45;;
14732;SDS011;7457;50.960;6.830;2023-03-31T05:59:59;2.28;;;1.30;;
14732;SDS011;7457;50.960;6.830;2023-03-31T06:02:26;4.38;;;1.60;;
14732;SDS011;7457;50.960;6.830;2023-03-31T06:04:51;3.17;;;1.40;;
14732;SDS011;7457;50.960;6.830;2023-03-31T06:07:17;2.20;;;1.20;;
14732;SDS011;7457;50.960;6.830;2023-03-31T06:09:44;2.05;;;1.30;;
14732;SDS011;7457;50.960;6.830;2023-03-31T06:12:10;5.10;;;1.38;;
14732;SDS011;7457;50.960;6.830;2023-03-31T06:14:35;2.60;;;1.20;;
14732;SDS011;7457;50.960;6.830;2023-03-31T06:17:01;2.45;;;1.10;;
14732;SDS011;7457;50.960;6.830;2023-03-31T06:19:26;1.90;;;1.00;;
14732;SDS011;7457;50.960;6.830;2023-03-31T06:21:52;2.25;;;1.27;;
14732;SDS011;7457;50.960;6.830;2023-03-31T06:24:18;2.45;;;1.30;;
14732;SDS011;7457;50.960;6.830;2023-03-31T06:26:43;1.33;;;0.77;;
14732;SDS011;7457;50.960;6.830;2023-03-31T06:29:09;2.67;;;1.10;;
14732;SDS011;7457;50.960;6.830;2023-03-31T06:31:34;1.23;;;0.77;;
14732;SDS011;7457;50.960;6.830;2023-03-31T06:34:00;2.15;;;1.02;;
14732;SDS011;7457;50.960;6.830;2023-03-31T06:36:26;0.93;;;0.82;;
14732;SDS011;7457;50.960;6.830;2023-03-31T06:38:52;1.80;;;0.95;;
14732;SDS011;7457;50.960;6.830;2023-03-31T06:41:18;1.80;;;1.00;;
14732;SDS011;7457;50.960;6.830;2023-03-31T06:43:45;1.48;;;0.95;;
14732;SDS011;7457;50.960;6.830;2023-03-31T06:46:10;1.65;;;1.25;;
14732;SDS011;7457;50.960;6.830;2023-03-31T06:48:36;1.20;;;0.93;;
14732;SDS011;7457;50.960;6.830;2023-03-31T06:51:03;0.90;;;0.77;;
14732;SDS011;7457;50.960;6.830;2023-03-31T06:53:30;1.25;;;0.68;;
14732;SDS011;7457;50.960;6.830;2023-03-31T06:55:56;3.08;;;0.70;;
14732;SDS011;7457;50.960;6.830;2023-03-31T06:58:22;1.13;;;1.00;;
14732;SDS011;7457;50.960;6.830;2023-03-31T07:00:48;2.28;;;0.85;;
14732;SDS011;7457;50.960;6.830;2023-03-31T07:03:13;1.67;;;0.82;;
14732;SDS011;7457;50.960;6.830;2023-03-31T07:05:46;1.00;;;0.85;;
14732;SDS011;7457;50.960;6.830;2023-03-31T07:08:12;0.75;;;0.70;;
14732;SDS011;7457;50.960;6.830;2023-03-31T07:10:38;1.05;;;0.80;;
14732;SDS011;7457;50.960;6.830;2023-03-31T07:13:04;1.67;;;0.68;;
14732;SDS011;7457;50.960;6.830;2023-03-31T07:15:29;1.63;;;0.80;;
14732;SDS011;7457;50.960;6.830;2023-03-31T07:17:55;1.05;;;0.60;;
14732;SDS011;7457;50.960;6.830;2023-03-31T07:20:26;1.13;;;0.82;;
14732;SDS011;7457;50.960;6.830;2023-03-31T07:22:52;1.38;;;0.82;;
14732;SDS011;7457;50.960;6.830;2023-03-31T07:25:18;0.70;;;0.70;;
14732;SDS011;7457;50.960;6.830;2023-03-31T07:27:43;1.60;;;1.02;;
14732;SDS011;7457;50.960;6.830;2023-03-31T07:30:10;3.70;;;1.20;;
14732;SDS011;7457;50.960;6.830;2023-03-31T07:32:41;1.27;;;0.80;;
14732;SDS011;7457;50.960;6.830;2023-03-31T07:35:10;0.93;;;0.70;;
14732;SDS011;7457;50.960;6.830;2023-03-31T07:37:38;1.85;;;0.95;;
14732;SDS011;7457;50.960;6.830;2023-03-31T07:40:06;1.08;;;0.68;;
14732;SDS011;7457;50.960;6.830;2023-03-31T07:42:34;1.50;;;0.80;;
14732;SDS011;7457;50.960;6.830;2023-03-31T07:45:00;0.93;;;0.88;;
14732;SDS011;7457;50.960;6.830;2023-03-31T07:47:26;2.13;;;1.05;;
14732;SDS011;7457;50.960;6.830;2023-03-31T07:49:52;2.78;;;1.05;;
14732;SDS011;7457;50.960;6.830;2023-03-31T07:52:18;2.55;;;1.13;;
14732;SDS011;7457;50.960;6.830;2023-03-31T07:54:44;2.28;;;1.05;;
14732;SDS011;7457;50.960;6.830;2023-03-31T07:57:10;1.30;;;0.80;;
14732;SDS011;7457;50.960;6.830;2023-03-31T07:59:36;3.70;;;1.25;;
14732;SDS011;7457;50.960;6.830;2023-03-31T08:02:02;1.95;;;1.00;;
14732;SDS011;7457;50.960;6.830;2023-03-31T08:04:27;1.63;;;0.90;;
14732;SDS011;7457;50.960;6.830;2023-03-31T08:06:53;1.50;;;1.40;;
14732;SDS011;7457;50.960;6.830;2023-03-31T08:09:19;3.95;;;1.27;;
14732;SDS011;7457;50.960;6.830;2023-03-31T08:11:46;2.33;;;1.10;;
14732;SDS011;7457;50.960;6.830;2023-03-31T08:14:12;1.80;;;1.30;;
14732;SDS011;7457;50.960;6.830;2023-03-31T08:16:38;2.58;;;1.17;;
14732;SDS011;7457;50.960;6.830;2023-03-31T08:19:04;3.70;;;1.55;;
14732;SDS011;7457;50.960;6.830;2023-03-31T08:21:30;4.93;;;1.40;;
14732;SDS011;7457;50.960;6.830;2023-03-31T08:24:01;5.10;;;1.40;;
14732;SDS011;7457;50.960;6.830;2023-03-31T08:26:27;5.18;;;1.30;;
14732;SDS011;7457;50.960;6.830;2023-03-31T08:28:52;4.97;;;1.65;;
14732;SDS011;7457;50.960;6.830;2023-03-31T08:31:18;3.10;;;1.40;;
14732;SDS011;7457;50.960;6.830;2023-03-31T08:33:45;2.40;;;1.20;;
14732;SDS011;7457;50.960;6.830;2023-03-31T08:36:11;2.58;;;1.40;;
14732;SDS011;7457;50.960;6.830;2023-03-31T08:38:40;2.17;;;1.15;;
14732;SDS011;7457;50.960;6.830;2023-03-31T08:41:21;8.40;;;1.42;;
14732;SDS011;7457;50.960;6.830;2023-03-31T08:43:50;5.07;;;1.80;;
14732;SDS011;7457;50.960;6.830;2023-03-31T08:46:19;5.47;;;1.83;;
14732;SDS011;7457;50.960;6.830;2023-03-31T08:48:49;4.78;;;2.03;;
14732;SDS011;7457;50.960;6.830;2023-03-31T08:57:13;7.60;;;2.03;;
14732;SDS011;7457;50.960;6.830;2023-03-31T08:59:43;4.75;;;1.98;;
14732;SDS011;7457;50.960;6.830;2023-03-31T09:05:10;6.10;;;1.70;;
14732;SDS011;7457;50.960;6.830;2023-03-31T09:08:00;5.85;;;1.80;;
14732;SDS011;7457;50.960;6.830;2023-03-31T09:13:55;5.20;;;2.33;;
14732;SDS011;7457;50.960;6.830;2023-03-31T09:16:40;4.10;;;2.22;;
14732;SDS011;7457;50.960;6.830;2023-03-31T09:19:29;5.78;;;2.28;;
14732;SDS011;7457;50.960;6.830;2023-03-31T09:22:08;6.25;;;2.15;;
14732;SDS011;7457;50.960;6.830;2023-03-31T09:24:43;5.80;;;2.10;;
14732;SDS011;7457;50.960;6.830;2023-03-31T09:27:32;7.25;;;2.20;;
14732;SDS011;7457;50.960;6.830;2023-03-31T09:30:02;5.13;;;1.90;;
14732;SDS011;7457;50.960;6.830;2023-03-31T09:32:30;6.90;;;2.67;;
14732;SDS011;7457;50.960;6.830;2023-03-31T09:35:01;5.75;;;2.30;;
14732;SDS011;7457;50.960;6.830;2023-03-31T09:37:47;5.22;;;2.63;;
14732;SDS011;7457;50.960;6.830;2023-03-31T09:40:18;6.40;;;2.25;;
14732;SDS011;7457;50.960;6.830;2023-03-31T09:42:46;7.47;;;2.45;;
14732;SDS011;7457;50.960;6.830;2023-03-31T09:45:15;7.47;;;2.10;;
14732;SDS011;7457;50.960;6.830;2023-03-31T09:47:43;7.88;;;2.33;;
14732;SDS011;7457;50.960;6.830;2023-03-31T09:50:13;7.40;;;2.22;;
14732;SDS011;7457;50.960;6.830;2023-03-31T09:52:41;10.25;;;2.50;;
14732;SDS011;7457;50.960;6.830;2023-03-31T09:55:19;9.40;;;1.98;;
14732;SDS011;7457;50.960;6.830;2023-03-31T09:57:53;6.88;;;2.63;;
14732;SDS011;7457;50.960;6.830;2023-03-31T10:00:20;6.63;;;2.45;;
14732;SDS011;7457;50.960;6.830;2023-03-31T10:02:50;10.45;;;2.83;;
14732;SDS011;7457;50.960;6.830;2023-03-31T10:11:23;4.63;;;2.22;;
14732;SDS011;7457;50.960;6.830;2023-03-31T10:13:47;6.05;;;2.35;;
14732;SDS011;7457;50.960;6.830;2023-03-31T10:16:43;4.57;;;2.10;;
14732;SDS011;7457;50.960;6.830;2023-03-31T10:24:21;6.40;;;2.38;;
14732;SDS011;7457;50.960;6.830;2023-03-31T10:26:47;9.93;;;2.55;;
14732;SDS011;7457;50.960;6.830;2023-03-31T10:29:26;10.68;;;2.42;;
14732;SDS011;7457;50.960;6.830;2023-03-31T10:31:55;5.30;;;1.92;;
14732;SDS011;7457;50.960;6.830;2023-03-31T10:34:28;6.20;;;2.78;;
14732;SDS011;7457;50.960;6.830;2023-03-31T10:36:55;7.35;;;2.15;;
14732;SDS011;7457;50.960;6.830;2023-03-31T10:39:21;9.35;;;2.10;;
14732;SDS011;7457;50.960;6.830;2023-03-31T10:41:55;6.00;;;2.30;;
14732;SDS011;7457;50.960;6.830;2023-03-31T10:44:30;5.40;;;2.28;;
14732;SDS011;7457;50.960;6.830;2023-03-31T10:47:24;6.35;;;2.10;;
14732;SDS011;7457;50.960;6.830;2023-03-31T10:49:50;9.65;;;2.60;;
14732;SDS011;7457;50.960;6.830;2023-03-31T10:52:24;7.18;;;2.10;;
14732;SDS011;7457;50.960;6.830;2023-03-31T10:54:55;6.65;;;2.10;;
14732;SDS011;7457;50.960;6.830;2023-03-31T10:57:26;9.75;;;2.08;;
14732;SDS011;7457;50.960;6.830;2023-03-31T11:05:49;6.53;;;1.67;;
14732;SDS011;7457;50.960;6.830;2023-03-31T11:11:15;4.88;;;1.40;;
14732;SDS011;7457;50.960;6.830;2023-03-31T11:14:07;2.75;;;1.38;;
14732;SDS011;7457;50.960;6.830;2023-03-31T11:28:01;3.67;;;1.50;;
14732;SDS011;7457;50.960;6.830;2023-03-31T11:30:57;3.63;;;1.38;;
14732;SDS011;7457;50.960;6.830;2023-03-31T11:36:49;1.35;;;1.02;;
14732;SDS011;7457;50.960;6.830;2023-03-31T11:42:32;5.55;;;1.50;;
14732;SDS011;7457;50.960;6.830;2023-03-31T11:45:14;6.03;;;1.77;;
14732;SDS011;7457;50.960;6.830;2023-03-31T11:47:43;5.07;;;1.77;;
14732;SDS011;7457;50.960;6.830;2023-03-31T11:50:15;5.18;;;2.25;;
14732;SDS011;7457;50.960;6.830;2023-03-31T11:55:56;11.85;;;2.72;;
14732;SDS011;7457;50.960;6.830;2023-03-31T11:58:26;9.85;;;2.88;;
14732;SDS011;7457;50.960;6.830;2023-03-31T12:01:06;7.03;;;2.50;;
14732;SDS011;7457;50.960;6.830;2023-03-31T12:03:43;5.63;;;2.40;;
14732;SDS011;7457;50.960;6.830;2023-03-31T12:06:39;8.57;;;2.47;;
14732;SDS011;7457;50.960;6.830;2023-03-31T12:09:10;9.05;;;2.85;;
14732;SDS011;7457;50.960;6.830;2023-03-31T12:17:13;10.23;;;2.50;;
14732;SDS011;7457;50.960;6.830;2023-03-31T12:24:52;7.68;;;2.53;;
14732;SDS011;7457;50.960;6.830;2023-03-31T12:30:05;8.30;;;1.92;;
14732;SDS011;7457;50.960;6.830;2023-03-31T12:32:40;6.70;;;2.13;;
14732;SDS011;7457;50.960;6.830;2023-03-31T12:51:24;6.10;;;2.00;;
14732;SDS011;7457;50.960;6.830;2023-03-31T12:59:28;5.32;;;2.03;;
14732;SDS011;7457;50.960;6.830;2023-03-31T13:04:34;4.53;;;1.70;;
14732;SDS011;7457;50.960;6.830;2023-03-31T13:07:02;4.72;;;1.50;;
14732;SDS011;7457;50.960;6.830;2023-03-31T13:12:06;6.60;;;1.73;;
14732;SDS011;7457;50.960;6.830;2023-03-31T13:14:37;3.88;;;1.60;;
14732;SDS011;7457;50.960;6.830;2023-03-31T13:17:25;4.35;;;1.88;;
14732;SDS011;7457;50.960;6.830;2023-03-31T13:19:54;5.35;;;1.48;;
14732;SDS011;7457;50.960;6.830;2023-03-31T13:22:31;9.65;;;1.83;;
14732;SDS011;7457;50.960;6.830;2023-03-31T13:27:54;3.47;;;1.63;;
14732;SDS011;7457;50.960;6.830;2023-03-31T13:35:37;6.80;;;2.22;;
14732;SDS011;7457;50.960;6.830;2023-03-31T13:43:26;4.25;;;1.75;;
14732;SDS011;7457;50.960;6.830;2023-03-31T14:07:49;1.90;;;1.20;;
14732;SDS011;7457;50.960;6.830;2023-03-31T14:10:36;5.15;;;1.58;;
14732;SDS011;7457;50.960;6.830;2023-03-31T14:13:06;4.55;;;1.13;;
14732;SDS011;7457;50.960;6.830;2023-03-31T14:15:37;5.40;;;1.40;;
14732;SDS011;7457;50.960;6.830;2023-03-31T14:18:32;6.53;;;1.50;;
14732;SDS011;7457;50.960;6.830;2023-03-31T14:21:04;1.33;;;0.70;;
14732;SDS011;7457;50.960;6.830;2023-03-31T14:24:15;5.75;;;1.40;;
14732;SDS011;7457;50.960;6.830;2023-03-31T14:35:49;3.60;;;1.38;;
14732;SDS011;7457;50.960;6.830;2023-03-31T14:38:20;1.30;;;0.82;;
14732;SDS011;7457;50.960;6.830;2023-03-31T14:40:47;4.30;;;1.08;;
14732;SDS011;7457;50.960;6.830;2023-03-31T14:43:22;4.50;;;1.35;;
14732;SDS011;7457;50.960;6.830;2023-03-31T14:46:12;4.07;;;1.10;;
14732;SDS011;7457;50.960;6.830;2023-03-31T14:48:43;4.13;;;1.30;;
14732;SDS011;7457;50.960;6.830;2023-03-31T14:51:13;2.88;;;1.50;;
14732;SDS011;7457;50.960;6.830;2023-03-31T14:53:40;2.53;;;1.08;;
14732;SDS011;7457;50.960;6.830;2023-03-31T14:56:14;3.88;;;1.55;;
14732;SDS011;7457;50.960;6.830;2023-03-31T14:58:47;2.85;;;1.40;;
14732;SDS011;7457;50.960;6.830;2023-03-31T15:01:17;4.55;;;1.65;;
14732;SDS011;7457;50.960;6.830;2023-03-31T15:03:47;4.80;;;1.55;;
14732;SDS011;7457;50.960;6.830;2023-03-31T15:06:15;5.97;;;1.50;;
14732;SDS011;7457;50.960;6.830;2023-03-31T15:08:41;3.75;;;1.50;;
14732;SDS011;7457;50.960;6.830;2023-03-31T15:11:08;3.95;;;1.48;;
14732;SDS011;7457;50.960;6.830;2023-03-31T15:13:41;4.40;;;1.33;;
14732;SDS011;7457;50.960;6.830;2023-03-31T15:16:45;4.78;;;1.40;;
14732;SDS011;7457;50.960;6.830;2023-03-31T15:24:38;2.45;;;1.25;;
14732;SDS011;7457;50.960;6.830;2023-03-31T15:29:43;4.60;;;1.60;;
14732;SDS011;7457;50.960;6.830;2023-03-31T15:32:14;5.43;;;1.70;;
14732;SDS011;7457;50.960;6.830;2023-03-31T15:34:41;9.40;;;1.85;;
14732;SDS011;7457;50.960;6.830;2023-03-31T15:37:07;2.38;;;1.20;;
14732;SDS011;7457;50.960;6.830;2023-03-31T15:39:35;2.58;;;1.65;;
14732;SDS011;7457;50.960;6.830;2023-03-31T15:42:02;2.97;;;1.60;;
14732;SDS011;7457;50.960;6.830;2023-03-31T15:44:46;2.72;;;1.20;;
14732;SDS011;7457;50.960;6.830;2023-03-31T15:47:28;2.58;;;1.40;;
14732;SDS011;7457;50.960;6.830;2023-03-31T15:52:28;2.35;;;1.10;;
14732;SDS011;7457;50.960;6.830;2023-03-31T15:55:00;2.65;;;1.13;;
14732;SDS011;7457;50.960;6.830;2023-03-31T15:57:46;2.92;;;1.10;;
14732;SDS011;7457;50.960;6.830;2023-03-31T16:00:39;2.80;;;1.27;;
14732;SDS011;7457;50.960;6.830;2023-03-31T16:03:00;2.95;;;1.10;;
14732;SDS011;7457;50.960;6.830;2023-03-31T16:05:34;1.38;;;1.00;;
14732;SDS011;7457;50.960;6.830;2023-03-31T16:08:08;3.00;;;1.08;;
14732;SDS011;7457;50.960;6.830;2023-03-31T16:10:40;2.85;;;0.95;;
14732;SDS011;7457;50.960;6.830;2023-03-31T16:13:06;2.22;;;1.00;;
14732;SDS011;7457;50.960;6.830;2023-03-31T16:15:35;4.75;;;1.27;;
14732;SDS011;7457;50.960;6.830;2023-03-31T16:18:08;1.90;;;1.00;;
14732;SDS011;7457;50.960;6.830;2023-03-31T16:20:42;2.67;;;1.00;;
14732;SDS011;7457;50.960;6.830;2023-03-31T16:23:15;4.85;;;1.23;;
14732;SDS011;7457;50.960;6.830;2023-03-31T16:25:44;2.83;;;1.25;;
14732;SDS011;7457;50.960;6.830;2023-03-31T16:28:17;3.03;;;1.17;;
14732;SDS011;7457;50.960;6.830;2023-03-31T16:30:48;4.85;;;1.02;;
14732;SDS011;7457;50.960;6.830;2023-03-31T16:33:17;2.88;;;1.38;;
14732;SDS011;7457;50.960;6.830;2023-03-31T16:35:45;2.17;;;1.05;;
14732;SDS011;7457;50.960;6.830;2023-03-31T16:38:17;3.80;;;1.35;;
14732;SDS011;7457;50.960;6.830;2023-03-31T16:40:45;3.67;;;1.30;;
14732;SDS011;7457;50.960;6.830;2023-03-31T16:43:13;3.55;;;1.33;;
14732;SDS011;7457;50.960;6.830;2023-03-31T16:45:44;3.53;;;1.35;;
14732;SDS011;7457;50.960;6.830;2023-03-31T16:48:12;2.88;;;1.60;;
14732;SDS011;7457;50.960;6.830;2023-03-31T16:50:38;2.90;;;1.45;;
14732;SDS011;7457;50.960;6.830;2023-03-31T16:53:05;2.72;;;1.17;;
14732;SDS011;7457;50.960;6.830;2023-03-31T16:55:31;1.80;;;1.25;;
14732;SDS011;7457;50.960;6.830;2023-03-31T16:57:57;1.65;;;0.93;;
14732;SDS011;7457;50.960;6.830;2023-03-31T17:00:27;3.08;;;1.23;;
14732;SDS011;7457;50.960;6.830;2023-03-31T17:02:54;3.33;;;1.27;;
14732;SDS011;7457;50.960;6.830;2023-03-31T17:05:19;3.75;;;1.50;;
14732;SDS011;7457;50.960;6.830;2023-03-31T17:07:45;3.95;;;1.25;;
14732;SDS011;7457;50.960;6.830;2023-03-31T17:10:11;3.20;;;1.30;;
14732;SDS011;7457;50.960;6.830;2023-03-31T17:12:37;3.22;;;1.30;;
14732;SDS011;7457;50.960;6.830;2023-03-31T17:15:03;4.07;;;1.20;;
14732;SDS011;7457;50.960;6.830;2023-03-31T17:17:29;2.35;;;1.15;;
14732;SDS011;7457;50.960;6.830;2023-03-31T17:19:55;4.32;;;1.33;;
14732;SDS011;7457;50.960;6.830;2023-03-31T17:22:23;4.28;;;1.10;;
14732;SDS011;7457;50.960;6.830;2023-03-31T17:24:49;2.10;;;1.20;;
14732;SDS011;7457;50.960;6.830;2023-03-31T17:27:20;2.28;;;1.02;;
14732;SDS011;7457;50.960;6.830;2023-03-31T17:29:46;5.40;;;1.50;;
14732;SDS011;7457;50.960;6.830;2023-03-31T17:32:12;2.38;;;1.30;;
14732;SDS011;7457;50.960;6.830;2023-03-31T17:34:39;4.05;;;1.30;;
14732;SDS011;7457;50.960;6.830;2023-03-31T17:37:05;4.18;;;0.93;;
14732;SDS011;7457;50.960;6.830;2023-03-31T17:39:31;3.53;;;1.27;;
14732;SDS011;7457;50.960;6.830;2023-03-31T17:41:56;3.53;;;1.50;;
14732;SDS011;7457;50.960;6.830;2023-03-31T17:44:22;6.30;;;1.50;;
14732;SDS011;7457;50.960;6.830;2023-03-31T17:46:48;3.42;;;1.60;;
14732;SDS011;7457;50.960;6.830;2023-03-31T17:49:14;4.15;;;1.02;;
14732;SDS011;7457;50.960;6.830;2023-03-31T17:51:41;3.33;;;1.30;;
14732;SDS011;7457;50.960;6.830;2023-03-31T17:54:08;2.53;;;1.52;;
14732;SDS011;7457;50.960;6.830;2023-03-31T17:56:35;3.05;;;1.42;;
14732;SDS011;7457;50.960;6.830;2023-03-31T17:59:01;3.40;;;1.30;;
14732;SDS011;7457;50.960;6.830;2023-03-31T18:01:28;3.42;;;1.45;;
14732;SDS011;7457;50.960;6.830;2023-03-31T18:03:56;3.85;;;1.52;;
14732;SDS011;7457;50.960;6.830;2023-03-31T18:06:22;3.15;;;1.30;;
14732;SDS011;7457;50.960;6.830;2023-03-31T18:08:49;4.95;;;1.30;;
14732;SDS011;7457;50.960;6.830;2023-03-31T18:11:15;3.67;;;1.58;;
14732;SDS011;7457;50.960;6.830;2023-03-31T18:13:41;2.28;;;1.50;;
14732;SDS011;7457;50.960;6.830;2023-03-31T18:16:07;3.65;;;1.10;;
14732;SDS011;7457;50.960;6.830;2023-03-31T18:18:34;7.25;;;1.60;;
14732;SDS011;7457;50.960;6.830;2023-03-31T18:21:10;2.78;;;1.10;;
14732;SDS011;7457;50.960;6.830;2023-03-31T18:23:37;2.38;;;1.15;;
14732;SDS011;7457;50.960;6.830;2023-03-31T18:26:07;4.82;;;1.30;;
14732;SDS011;7457;50.960;6.830;2023-03-31T18:28:35;3.03;;;1.10;;
14732;SDS011;7457;50.960;6.830;2023-03-31T18:31:04;2.70;;;1.38;;
14732;SDS011;7457;50.960;6.830;2023-03-31T18:33:31;2.28;;;0.85;;